createdAt,value
2022-11-15T00:01:16.371Z,100585.47
2022-11-15T00:03:42.660Z,100590.34
2022-11-15T00:06:09.521Z,100591.88
2022-11-15T00:08:35.974Z,100590.56
2022-11-15T00:11:03.103Z,100592.09
2022-11-15T00:13:31.502Z,100588.19
2022-11-15T00:15:58.622Z,100584.38
2022-11-15T00:18:24.933Z,100583.41
2022-11-15T00:20:51.222Z,100580.47
2022-11-15T00:23:17.485Z,100579.19
2022-11-15T00:25:43.770Z,100577.06
2022-11-15T00:28:10.035Z,100570.63
2022-11-15T00:30:37.634Z,100580.94
2022-11-15T00:33:04.361Z,100578.97
2022-11-15T00:35:32.251Z,100574.31
2022-11-15T00:37:58.540Z,100571.38
2022-11-15T00:40:24.817Z,100574.72
2022-11-15T00:42:51.120Z,100577.22
2022-11-15T00:45:17.502Z,100574.28
2022-11-15T00:47:46.084Z,100576.75
2022-11-15T00:50:15.158Z,100571.44
2022-11-15T00:52:41.875Z,100575.75
2022-11-15T00:55:09.039Z,100569.50
2022-11-15T00:57:35.313Z,100563.34
2022-11-15T01:00:01.577Z,100566.84
2022-11-15T01:02:27.872Z,100563.22
2022-11-15T01:04:55.506Z,100563.75
2022-11-15T01:07:21.843Z,100558.97
2022-11-15T01:09:48.251Z,100558.81
2022-11-15T01:12:14.544Z,100563.25
2022-11-15T01:14:40.827Z,100557.97
2022-11-15T01:17:07.102Z,100556.97
2022-11-15T01:19:33.433Z,100554.34
2022-11-15T01:22:01.073Z,100556.00
2022-11-15T01:24:27.367Z,100553.34
2022-11-15T01:26:53.641Z,100554.19
2022-11-15T01:29:19.936Z,100551.25
2022-11-15T01:31:46.224Z,100546.78
2022-11-15T01:34:12.523Z,100545.78
2022-11-15T01:36:38.799Z,100543.13
2022-11-15T01:39:06.432Z,100548.13
2022-11-15T01:41:33.676Z,100542.84
2022-11-15T01:44:14.861Z,100539.19
2022-11-15T01:46:44.591Z,100530.78
2022-11-15T01:49:12.923Z,100539.25
2022-11-15T01:51:39.384Z,100540.59
2022-11-15T01:54:09.592Z,100537.63
2022-11-15T01:56:39.279Z,100530.38
2022-11-15T01:59:07.601Z,100530.06
2022-11-15T02:01:34.150Z,100532.38
2022-11-15T02:04:01.617Z,100526.09
2022-11-15T02:06:27.902Z,100538.38
2022-11-15T02:08:55.137Z,100525.78
2022-11-15T02:11:22.749Z,100524.66
2022-11-15T02:13:49.087Z,100527.31
2022-11-15T02:16:19.261Z,100522.69
2022-11-15T02:18:50.078Z,100512.91
2022-11-15T02:21:21.755Z,100515.22
2022-11-15T02:24:06.508Z,100515.91
2022-11-15T02:26:52.942Z,100521.91
2022-11-15T02:29:27.378Z,100521.75
2022-11-15T02:31:57.905Z,100522.56
2022-11-15T02:34:29.216Z,100519.78
2022-11-15T02:36:58.894Z,100520.25
2022-11-15T02:39:28.409Z,100520.09
2022-11-15T02:41:58.567Z,100517.31
2022-11-15T02:44:27.073Z,100515.47
2022-11-15T02:46:55.377Z,100511.84
2022-11-15T02:49:23.855Z,100510.72
2022-11-15T02:51:51.731Z,100501.41
2022-11-15T02:54:20.631Z,100490.97
2022-11-15T02:56:47.103Z,100489.97
2022-11-15T02:59:31.372Z,100489.81
2022-11-15T03:02:07.428Z,100488.84
2022-11-15T03:04:39.203Z,100479.91
2022-11-15T03:07:08.587Z,100480.56
2022-11-15T03:09:35.845Z,100473.44
2022-11-15T03:12:04.888Z,100480.25
2022-11-15T03:14:33.681Z,100480.06
2022-11-15T03:17:03.025Z,100471.97
2022-11-15T03:19:33.280Z,100465.66
2022-11-15T03:22:02.073Z,100464.53
2022-11-15T03:24:29.635Z,100464.38
2022-11-15T03:26:57.626Z,100466.66
2022-11-15T03:29:25.573Z,100465.69
2022-11-15T03:31:54.736Z,100469.00
2022-11-15T03:34:25.416Z,100466.19
2022-11-15T03:36:51.945Z,100467.03
2022-11-15T03:39:20.934Z,100461.41
2022-11-15T03:41:49.332Z,100474.53
2022-11-15T03:44:18.096Z,100471.69
2022-11-15T03:46:47.619Z,100475.16
2022-11-15T03:49:16.286Z,100471.53
2022-11-15T03:51:42.589Z,100478.50
2022-11-15T03:54:08.878Z,100472.03
2022-11-15T03:56:36.484Z,100479.16
2022-11-15T03:59:02.765Z,100478.03
2022-11-15T04:01:29.155Z,100479.69
2022-11-15T04:03:55.540Z,100474.38
2022-11-15T04:06:21.821Z,100471.56
2022-11-15T04:08:48.108Z,100481.88
2022-11-15T04:11:14.443Z,100474.75
2022-11-15T04:13:42.092Z,100468.44
2022-11-15T04:16:08.361Z,100472.75
2022-11-15T04:18:34.644Z,100481.41
2022-11-15T04:21:00.930Z,100472.59
2022-11-15T04:23:27.223Z,100475.09
2022-11-15T04:25:54.801Z,100474.94
2022-11-15T04:28:21.085Z,100470.31
2022-11-15T04:30:48.781Z,100470.31
2022-11-15T04:33:15.390Z,100462.16
2022-11-15T04:35:42.385Z,100468.28
2022-11-15T04:38:09.466Z,100474.44
2022-11-15T04:40:36.600Z,100467.31
2022-11-15T04:43:04.085Z,100473.44
2022-11-15T04:45:30.657Z,100474.28
2022-11-15T04:47:58.280Z,100476.09
2022-11-15T04:50:24.593Z,100478.75
2022-11-15T04:52:51.535Z,100476.09
2022-11-15T04:55:17.941Z,100477.75
2022-11-15T04:57:44.235Z,100470.47
2022-11-15T05:00:12.976Z,100473.97
2022-11-15T05:02:39.262Z,100466.00
2022-11-15T05:05:07.427Z,100470.47
2022-11-15T05:07:33.756Z,100464.31
2022-11-15T05:10:00.041Z,100467.16
2022-11-15T05:12:26.353Z,100460.16
2022-11-15T05:14:52.616Z,100465.31
2022-11-15T05:17:18.892Z,100460.16
2022-11-15T05:19:45.166Z,100456.53
2022-11-15T05:22:12.819Z,100457.50
2022-11-15T05:24:39.092Z,100457.50
2022-11-15T05:27:05.392Z,100456.53
2022-11-15T05:29:31.666Z,100450.53
2022-11-15T05:31:57.941Z,100451.22
2022-11-15T05:34:24.967Z,100451.06
2022-11-15T05:36:51.287Z,100455.53
2022-11-15T05:39:18.890Z,100450.06
2022-11-15T05:41:47.838Z,100447.41
2022-11-15T05:44:16.408Z,100446.41
2022-11-15T05:46:42.967Z,100443.75
2022-11-15T05:49:12.274Z,100443.59
2022-11-15T05:51:39.294Z,100451.41
2022-11-15T05:54:05.671Z,100444.91
2022-11-15T05:56:33.367Z,100455.38
2022-11-15T05:59:00.223Z,100453.53
2022-11-15T06:01:27.506Z,100448.91
2022-11-15T06:03:53.805Z,100450.72
2022-11-15T06:06:20.087Z,100455.06
2022-11-15T06:08:46.366Z,100461.19
2022-11-15T06:11:12.647Z,100465.50
2022-11-15T06:13:40.327Z,100471.81
2022-11-15T06:16:06.802Z,100472.97
2022-11-15T06:18:33.898Z,100481.81
2022-11-15T06:21:00.598Z,100479.31
2022-11-15T06:23:26.897Z,100485.44
2022-11-15T06:25:53.185Z,100481.59
2022-11-15T06:28:19.466Z,100472.13
2022-11-15T06:30:52.903Z,100471.50
2022-11-15T06:33:19.552Z,100477.28
2022-11-15T06:35:45.848Z,100478.28
2022-11-15T06:38:12.156Z,100475.94
2022-11-15T06:40:40.374Z,100475.31
2022-11-15T06:43:07.025Z,100483.44
2022-11-15T06:45:33.301Z,100475.47
2022-11-15T06:48:00.902Z,100488.06
2022-11-15T06:50:27.415Z,100491.72
2022-11-15T06:52:53.697Z,100494.53
2022-11-15T06:55:20.017Z,100496.50
2022-11-15T06:57:50.068Z,100499.31
2022-11-15T07:00:17.139Z,100505.63
2022-11-15T07:02:43.408Z,100504.97
2022-11-15T07:05:11.038Z,100506.94
2022-11-15T07:07:37.452Z,100507.94
2022-11-15T07:10:04.099Z,100513.25
2022-11-15T07:12:30.367Z,100516.06
2022-11-15T07:14:56.668Z,100510.91
2022-11-15T07:17:22.959Z,100514.69
2022-11-15T07:19:49.274Z,100524.66
2022-11-15T07:22:16.888Z,100522.84
2022-11-15T07:24:43.173Z,100519.34
2022-11-15T07:27:09.613Z,100523.00
2022-11-15T07:29:35.960Z,100529.97
2022-11-15T07:32:02.241Z,100528.97
2022-11-15T07:34:28.503Z,100533.44
2022-11-15T07:36:54.778Z,100535.28
2022-11-15T07:39:22.435Z,100528.97
2022-11-15T07:41:48.727Z,100534.97
2022-11-15T07:44:15.014Z,100535.09
2022-11-15T07:46:41.340Z,100542.06
2022-11-15T07:49:07.634Z,100540.25
2022-11-15T07:51:33.910Z,100534.09
2022-11-15T07:54:00.235Z,100530.47
2022-11-15T07:56:27.863Z,100532.16
2022-11-15T07:58:54.136Z,100525.00
2022-11-15T08:01:20.503Z,100525.00
2022-11-15T08:03:46.847Z,100517.06
2022-11-15T08:06:13.159Z,100517.06
2022-11-15T08:08:39.466Z,100518.03
2022-11-15T08:11:05.768Z,100520.53
2022-11-15T08:13:33.670Z,100527.50
2022-11-15T08:16:00.511Z,100525.53
2022-11-15T08:18:26.786Z,100535.84
2022-11-15T08:20:53.069Z,100536.66
2022-11-15T08:23:19.357Z,100532.16
2022-11-15T08:25:45.643Z,100530.34
2022-11-15T08:28:11.945Z,100528.38
2022-11-15T08:30:40.503Z,100531.84
2022-11-15T08:33:06.775Z,100528.88
2022-11-15T08:35:33.058Z,100530.53
2022-11-15T08:37:59.351Z,100526.22
2022-11-15T08:40:25.656Z,100535.84
2022-11-15T08:42:51.974Z,100521.59
2022-11-15T08:45:18.297Z,100517.78
2022-11-15T08:47:51.123Z,100510.63
2022-11-15T08:50:20.166Z,100501.66
2022-11-15T08:52:46.465Z,100501.03
2022-11-15T08:55:12.745Z,100504.53
2022-11-15T08:57:39.029Z,100510.66
2022-11-15T09:00:05.982Z,100507.84
2022-11-15T09:02:32.359Z,100501.72
2022-11-15T09:04:59.989Z,100496.38
2022-11-15T09:07:26.306Z,100496.06
2022-11-15T09:09:52.606Z,100496.38
2022-11-15T09:12:18.934Z,100497.72
2022-11-15T09:14:45.210Z,100498.09
2022-11-15T09:17:11.493Z,100494.06
2022-11-15T09:19:37.798Z,100489.44
2022-11-15T09:22:07.943Z,100484.94
2022-11-15T09:24:34.400Z,100474.16
2022-11-15T09:27:00.703Z,100481.81
2022-11-15T09:29:27.354Z,100471.81
2022-11-15T09:31:53.669Z,100472.16
2022-11-15T09:34:19.978Z,100464.69
2022-11-15T09:36:46.276Z,100466.50
2022-11-15T09:39:13.915Z,100448.03
2022-11-15T09:41:59.185Z,100458.81
2022-11-15T09:44:39.697Z,100453.16
2022-11-15T09:47:11.074Z,100458.63
2022-11-15T09:49:37.381Z,100459.13
2022-11-15T09:52:04.362Z,100458.78
2022-11-15T09:57:22.314Z,100453.78
2022-11-15T09:59:56.457Z,100447.75
2022-11-15T10:02:34.919Z,100449.25
2022-11-15T10:05:02.179Z,100449.25
2022-11-15T10:07:32.284Z,100444.28
2022-11-15T10:10:03.067Z,100433.34
2022-11-15T10:12:29.949Z,100444.66
2022-11-15T10:15:06.295Z,100426.16
2022-11-15T10:17:41.374Z,100430.78
2022-11-15T10:20:11.995Z,100425.78
2022-11-15T10:22:40.670Z,100430.75
2022-11-15T10:25:24.895Z,100437.38
2022-11-15T10:27:53.751Z,100425.06
2022-11-15T10:30:20.147Z,100425.44
2022-11-15T10:32:47.347Z,100425.44
2022-11-15T10:35:17.736Z,100426.09
2022-11-15T10:37:44.052Z,100419.00
2022-11-15T10:40:16.344Z,100416.69
2022-11-15T10:42:44.076Z,100409.38
2022-11-15T10:45:23.838Z,100410.06
2022-11-15T10:47:50.120Z,100404.75
2022-11-15T10:50:27.796Z,100409.88
2022-11-15T10:52:54.636Z,100407.88
2022-11-15T10:55:23.753Z,100409.03
2022-11-15T10:57:52.478Z,100412.72
2022-11-15T11:00:28.107Z,100405.25
2022-11-15T11:02:57.922Z,100400.25
2022-11-15T11:05:30.330Z,100392.81
2022-11-15T11:07:57.715Z,100386.66
2022-11-15T11:10:54.999Z,100390.00
2022-11-15T11:13:15.570Z,100387.28
2022-11-15T11:15:45.331Z,100382.09
2022-11-15T11:18:15.686Z,100378.94
2022-11-15T11:20:45.845Z,100376.22
2022-11-15T11:23:20.554Z,100363.03
2022-11-15T11:25:51.833Z,100354.22
2022-11-15T11:28:30.882Z,100351.03
2022-11-15T11:31:01.467Z,100346.50
2022-11-15T11:33:32.196Z,100337.97
2022-11-15T11:36:04.465Z,100337.81
2022-11-15T11:38:39.339Z,100324.97
2022-11-15T11:41:08.322Z,100323.75
2022-11-15T11:43:42.316Z,100319.09
2022-11-15T11:46:14.125Z,100322.25
2022-11-15T11:48:44.422Z,100311.69
2022-11-15T11:51:18.299Z,100311.16
2022-11-15T11:53:48.563Z,100302.44
2022-11-15T11:56:20.527Z,100294.28
2022-11-15T11:58:49.155Z,100293.28
2022-11-15T12:01:18.744Z,100277.84
2022-11-15T12:03:46.856Z,100278.69
2022-11-15T12:06:19.601Z,100265.53
2022-11-15T12:08:48.095Z,100264.34
2022-11-15T12:11:16.849Z,100267.28
2022-11-15T12:13:43.648Z,100253.97
2022-11-15T12:16:16.395Z,100260.88
2022-11-15T12:18:45.613Z,100248.47
2022-11-15T12:21:16.412Z,100241.66
2022-11-15T12:23:45.197Z,100247.56
2022-11-15T12:26:16.385Z,100245.63
2022-11-15T12:29:05.999Z,100238.34
2022-11-15T12:31:37.725Z,100236.34
2022-11-15T12:34:07.474Z,100242.41
2022-11-15T12:36:37.607Z,100232.28
2022-11-15T12:39:04.597Z,100222.00
2022-11-15T12:41:31.492Z,100220.81
2022-11-15T12:43:58.364Z,100220.34
2022-11-15T12:46:43.199Z,100215.47
2022-11-15T12:49:24.984Z,100202.81
2022-11-15T12:52:06.173Z,100202.47
2022-11-15T12:54:51.347Z,100198.31
2022-11-15T12:57:36.027Z,100187.84
2022-11-15T13:00:06.027Z,100178.84
2022-11-15T13:02:34.313Z,100184.81
2022-11-15T13:05:19.376Z,100169.22
2022-11-15T13:07:59.349Z,100167.19
2022-11-15T13:10:31.192Z,100159.38
2022-11-15T13:12:58.655Z,100162.88
2022-11-15T13:15:43.780Z,100161.03
2022-11-15T13:18:28.734Z,100159.84
2022-11-15T13:21:00.954Z,100153.53
2022-11-15T13:23:30.074Z,100149.03
2022-11-15T13:26:09.621Z,100147.16
2022-11-15T13:28:37.893Z,100132.66
2022-11-15T13:31:14.666Z,100127.97
2022-11-15T13:33:41.011Z,100127.25
2022-11-15T13:36:09.886Z,100116.59
2022-11-15T13:38:38.559Z,100119.06
2022-11-15T13:41:14.992Z,100113.72
2022-11-15T13:43:41.291Z,100118.03
2022-11-15T13:46:08.405Z,100114.38
2022-11-15T13:48:34.997Z,100107.13
2022-11-15T13:51:02.648Z,100110.44
2022-11-15T13:53:29.139Z,100105.50
2022-11-15T13:55:58.079Z,100104.00
2022-11-15T13:58:24.470Z,100092.72
2022-11-15T14:00:58.763Z,100088.78
2022-11-15T14:03:26.236Z,100086.94
2022-11-15T14:06:03.327Z,100077.31
2022-11-15T14:08:29.870Z,100074.53
2022-11-15T14:11:13.468Z,100078.03
2022-11-15T14:13:39.794Z,100068.38
2022-11-15T14:16:16.242Z,100068.38
2022-11-15T14:18:44.326Z,100060.59
2022-11-15T14:21:10.659Z,100052.59
2022-11-15T14:23:36.960Z,100053.41
2022-11-15T14:26:07.484Z,100049.31
2022-11-15T14:28:38.999Z,100045.00
2022-11-15T14:31:11.327Z,100035.19
2022-11-15T14:33:38.009Z,100033.13
2022-11-15T14:36:05.322Z,100037.44
2022-11-15T14:38:31.998Z,100027.81
2022-11-15T14:40:58.609Z,100021.28
2022-11-15T14:43:25.054Z,100022.13
2022-11-15T14:45:52.666Z,100018.63
2022-11-15T14:48:18.964Z,100007.34
2022-11-15T14:50:45.391Z,100003.06
2022-11-15T14:53:13.226Z,100003.66
2022-11-15T14:55:39.629Z,100000.56
2022-11-15T14:58:06.835Z,99996.63
2022-11-15T15:00:35.247Z,99987.63
2022-11-15T15:03:03.934Z,99982.47
2022-11-15T15:05:32.316Z,99976.16
2022-11-15T15:07:58.763Z,99977.97
2022-11-15T15:10:39.572Z,99966.88
2022-11-15T15:13:07.079Z,99962.56
2022-11-15T15:15:34.362Z,99960.72
2022-11-15T15:18:00.644Z,99956.03
2022-11-15T15:20:28.243Z,99952.75
2022-11-15T15:22:54.537Z,99946.16
2022-11-15T15:25:22.115Z,99943.69
2022-11-15T15:27:50.415Z,99940.00
2022-11-15T15:30:17.068Z,99931.00
2022-11-15T15:32:43.347Z,99940.19
2022-11-15T15:35:12.398Z,99936.53
2022-11-15T15:37:40.497Z,99935.69
2022-11-15T15:40:11.500Z,99931.75
2022-11-15T15:42:37.818Z,99935.41
2022-11-15T15:45:04.472Z,99925.22
2022-11-15T15:47:30.752Z,99926.59
2022-11-15T15:49:57.039Z,99927.66
2022-11-15T15:52:23.328Z,99922.69
2022-11-15T15:54:50.951Z,99923.69
2022-11-15T15:57:17.227Z,99921.69
2022-11-15T15:59:43.524Z,99921.84
2022-11-15T16:02:10.341Z,99906.25
2022-11-15T16:04:36.955Z,99918.09
2022-11-15T16:07:03.352Z,99920.75
2022-11-15T16:09:29.716Z,99913.78
2022-11-15T16:11:57.380Z,99916.44
2022-11-15T16:14:23.664Z,99911.94
2022-11-15T16:16:49.947Z,99917.47
2022-11-15T16:19:16.234Z,99907.63
2022-11-15T16:21:42.720Z,99919.31
2022-11-15T16:24:09.034Z,99913.16
2022-11-15T16:26:36.019Z,99914.19
2022-11-15T16:29:03.686Z,99912.88
2022-11-15T16:31:29.977Z,99916.53
2022-11-15T16:33:56.270Z,99921.38
2022-11-15T16:36:28.429Z,99919.94
2022-11-15T16:38:56.073Z,99922.13
2022-11-15T16:41:22.351Z,99919.84
2022-11-15T16:43:49.138Z,99924.72
2022-11-15T16:46:17.950Z,99915.28
2022-11-15T16:48:44.231Z,99915.44
2022-11-15T16:51:10.587Z,99916.81
2022-11-15T16:53:37.973Z,99911.88
2022-11-15T16:56:04.540Z,99906.94
2022-11-15T16:58:31.032Z,99909.94
2022-11-15T17:00:57.652Z,99909.50
2022-11-15T17:03:25.657Z,99912.34
2022-11-15T17:05:52.332Z,99909.69
2022-11-15T17:08:18.619Z,99901.91
2022-11-15T17:10:44.886Z,99901.25
2022-11-15T17:13:12.224Z,99903.09
2022-11-15T17:15:38.703Z,99903.09
2022-11-15T17:18:05.685Z,99894.47
2022-11-15T17:20:33.327Z,99898.13
2022-11-15T17:22:59.636Z,99900.34
2022-11-15T17:25:25.941Z,99891.53
2022-11-15T17:27:52.213Z,99887.41
2022-11-15T17:30:18.635Z,99896.84
2022-11-15T17:32:44.902Z,99891.53
2022-11-15T17:35:15.413Z,99889.06
2022-11-15T17:37:43.556Z,99882.91
2022-11-15T17:40:10.355Z,99883.94
2022-11-15T17:42:36.626Z,99876.13
2022-11-15T17:45:09.373Z,99874.66
2022-11-15T17:47:36.665Z,99879.16
2022-11-15T17:50:03.363Z,99870.34
2022-11-15T17:52:29.642Z,99873.38
2022-11-15T17:54:57.274Z,99861.09
2022-11-15T17:57:23.563Z,99864.78
2022-11-15T17:59:49.842Z,99865.59
2022-11-15T18:02:17.268Z,99860.63
2022-11-15T18:04:43.574Z,99856.16
2022-11-15T18:07:09.939Z,99857.16
2022-11-15T18:09:36.286Z,99860.00
2022-11-15T18:12:04.145Z,99857.97
2022-11-15T18:14:30.432Z,99856.97
2022-11-15T18:16:56.687Z,99847.34
2022-11-15T18:19:23.020Z,99844.69
2022-11-15T18:21:49.337Z,99846.53
2022-11-15T18:24:15.631Z,99841.22
2022-11-15T18:26:44.454Z,99846.53
2022-11-15T18:29:12.080Z,99838.56
2022-11-15T18:31:40.425Z,99839.38
2022-11-15T18:34:08.890Z,99837.53
2022-11-15T18:36:35.803Z,99832.88
2022-11-15T18:39:02.883Z,99834.53
2022-11-15T18:41:29.235Z,99834.53
2022-11-15T18:43:55.911Z,99822.25
2022-11-15T18:46:24.670Z,99827.38
2022-11-15T18:48:51.578Z,99821.88
2022-11-15T18:51:18.935Z,99821.88
2022-11-15T18:53:45.576Z,99820.84
2022-11-15T18:56:13.351Z,99815.75
2022-11-15T18:58:40.663Z,99819.00
2022-11-15T19:01:08.047Z,99807.56
2022-11-15T19:03:37.159Z,99811.03
2022-11-15T19:06:04.626Z,99810.03
2022-11-15T19:08:35.204Z,99806.56
2022-11-15T19:11:05.630Z,99810.84
2022-11-15T19:13:32.137Z,99800.88
2022-11-15T19:15:58.745Z,99797.38
2022-11-15T19:18:25.368Z,99799.03
2022-11-15T19:20:53.086Z,99794.56
2022-11-15T19:23:19.346Z,99797.03
2022-11-15T19:25:53.336Z,99795.19
2022-11-15T19:28:19.601Z,99795.00
2022-11-15T19:30:45.890Z,99795.38
2022-11-15T19:33:12.190Z,99779.59
2022-11-15T19:35:38.466Z,99776.94
2022-11-15T19:38:06.094Z,99784.94
2022-11-15T19:40:32.758Z,99776.13
2022-11-15T19:42:59.081Z,99776.94
2022-11-15T19:45:25.363Z,99768.97
2022-11-15T19:47:51.638Z,99775.28
2022-11-15T19:50:17.910Z,99768.34
2022-11-15T19:52:44.325Z,99766.31
2022-11-15T19:55:12.054Z,99768.97
2022-11-15T19:57:38.338Z,99756.69
2022-11-15T20:00:07.395Z,99758.97
2022-11-15T20:02:33.981Z,99761.47
2022-11-15T20:05:00.265Z,99762.28
2022-11-15T20:07:26.610Z,99767.59
2022-11-15T20:09:53.024Z,99756.97
2022-11-15T20:12:20.680Z,99756.97
2022-11-15T20:14:46.954Z,99756.97
2022-11-15T20:17:13.264Z,99750.81
2022-11-15T20:19:39.526Z,99743.88
2022-11-15T20:22:05.817Z,99747.16
2022-11-15T20:24:32.105Z,99742.66
2022-11-15T20:26:58.382Z,99751.47
2022-11-15T20:29:25.994Z,99753.31
2022-11-15T20:31:52.276Z,99745.69
2022-11-15T20:34:18.564Z,99737.34
2022-11-15T20:36:44.876Z,99739.19
2022-11-15T20:39:11.169Z,99742.84
2022-11-15T20:41:37.449Z,99742.66
2022-11-15T20:44:03.795Z,99742.66
2022-11-15T20:46:31.402Z,99738.19
2022-11-15T20:48:57.686Z,99734.50
2022-11-15T20:51:23.949Z,99733.69
2022-11-15T20:53:50.262Z,99732.03
2022-11-15T20:56:17.570Z,99725.91
2022-11-15T20:58:44.328Z,99726.72
2022-11-15T21:01:11.521Z,99720.41
2022-11-15T21:03:39.287Z,99715.91
2022-11-15T21:06:05.922Z,99716.69
2022-11-15T21:08:32.538Z,99718.56
2022-11-15T21:10:59.038Z,99705.06
2022-11-15T21:13:25.587Z,99715.69
2022-11-15T21:15:54.845Z,99700.75
2022-11-15T21:18:21.120Z,99699.13
2022-11-15T21:20:48.772Z,99704.22
2022-11-15T21:23:15.043Z,99701.56
2022-11-15T21:25:41.341Z,99701.78
2022-11-15T21:28:07.628Z,99694.81
2022-11-15T21:30:33.916Z,99694.81
2022-11-15T21:33:00.232Z,99697.47
2022-11-15T21:35:26.551Z,99696.47
2022-11-15T21:37:57.034Z,99693.00
2022-11-15T21:40:23.696Z,99681.13
2022-11-15T21:42:50.060Z,99680.31
2022-11-15T21:45:16.401Z,99675.81
2022-11-15T21:47:46.092Z,99675.81
2022-11-15T21:50:13.071Z,99669.88
2022-11-15T21:52:39.337Z,99670.72
2022-11-15T21:55:07.504Z,99667.22
2022-11-15T21:57:33.797Z,99668.06
2022-11-15T22:00:00.087Z,99662.53
2022-11-15T22:02:26.352Z,99660.50
2022-11-15T22:04:52.647Z,99658.84
2022-11-15T22:07:18.985Z,99653.72
2022-11-15T22:09:45.277Z,99648.41
2022-11-15T22:12:12.984Z,99644.56
2022-11-15T22:14:39.266Z,99640.25
2022-11-15T22:17:05.557Z,99639.88
2022-11-15T22:19:31.834Z,99640.50
2022-11-15T22:21:58.113Z,99639.22
2022-11-15T22:24:24.474Z,99639.69
2022-11-15T22:26:50.769Z,99641.34
2022-11-15T22:29:18.400Z,99633.16
2022-11-15T22:31:44.696Z,99631.34
2022-11-15T22:34:10.982Z,99632.34
2022-11-15T22:36:58.462Z,99622.53
2022-11-15T22:39:23.517Z,99613.56
2022-11-15T22:41:49.801Z,99611.91
2022-11-15T22:44:16.085Z,99611.91
2022-11-15T22:46:43.722Z,99618.88
2022-11-15T22:49:10.023Z,99613.56
2022-11-15T22:51:36.335Z,99608.84
2022-11-15T22:54:02.658Z,99610.91
2022-11-15T22:56:29.312Z,99596.38
2022-11-15T22:58:55.597Z,99598.59
2022-11-15T23:01:22.013Z,99604.53
2022-11-15T23:03:49.738Z,99599.84
2022-11-15T23:06:16.275Z,99603.75
2022-11-15T23:08:42.672Z,99604.78
2022-11-15T23:11:10.278Z,99594.97
2022-11-15T23:13:36.634Z,99593.16
2022-11-15T23:16:04.691Z,99587.81
2022-11-15T23:18:33.266Z,99590.31
2022-11-15T23:21:07.275Z,99590.31
2022-11-15T23:23:34.639Z,99586.63
2022-11-15T23:26:01.181Z,99595.22
2022-11-15T23:28:27.485Z,99586.22
2022-11-15T23:30:53.762Z,99587.44
2022-11-15T23:33:20.301Z,99599.75
2022-11-15T23:35:53.193Z,99589.91
2022-11-15T23:38:20.842Z,99586.22
2022-11-15T23:40:50.602Z,99586.22
2022-11-15T23:43:16.908Z,99586.84
2022-11-15T23:45:43.205Z,99586.03
2022-11-15T23:48:09.484Z,99583.38
2022-11-15T23:50:35.877Z,99583.38
2022-11-15T23:53:02.181Z,99575.22
2022-11-15T23:55:30.161Z,99573.56
2022-11-15T23:57:56.811Z,99577.88
